Time;durP1;ratioP1;P1;durP2;ratioP2;P2;SDS_P1;SDS_P2;PMS_P1;PMS_P2;Temp;Humidity;BMP_temperature;BMP_pressure;BME280_temperature;BME280_humidity;BME280_pressure;Samples;Min_cycle;Max_cycle;Signal;HPM_P1;HPM_P2
2022/05/20 00:00:49;;;;;;;56.03;31.10;;;;;;;20.13;66.29;101390.25;5010633;28;119768;-79
2022/05/20 00:03:16;;;;;;;54.60;30.15;;;;;;;20.10;66.03;101394.00;4975931;28;121096;-79
2022/05/20 00:05:41;;;;;;;45.40;27.02;;;;;;;20.06;65.88;101391.47;5001607;27;120060;-80
2022/05/20 00:08:08;;;;;;;53.47;30.15;;;;;;;20.04;65.84;101399.56;5009163;28;119696;-79
2022/05/20 00:10:34;;;;;;;46.65;27.85;;;;;;;20.01;65.58;101400.56;4992445;28;121776;-80
2022/05/20 00:13:00;;;;;;;50.92;30.10;;;;;;;19.97;65.91;101386.13;4991739;28;119684;-79
2022/05/20 00:15:27;;;;;;;52.03;30.08;;;;;;;19.93;65.91;101394.72;4992835;28;119452;-80
2022/05/20 00:17:55;;;;;;;52.85;29.17;;;;;;;19.92;65.85;101395.97;5007350;27;121621;-79
2022/05/20 00:20:23;;;;;;;55.70;31.45;;;;;;;19.92;65.65;101392.44;5011857;27;119876;-79
2022/05/20 00:22:49;;;;;;;47.75;28.77;;;;;;;19.88;65.48;101397.47;5013662;27;120397;-79
2022/05/20 00:28:02;;;;;;;43.20;27.25;;;;;;;19.74;64.71;101398.41;5008672;28;120411;-79
2022/05/20 00:30:28;;;;;;;41.17;26.90;;;;;;;19.70;64.49;101400.66;5008769;28;121185;-79
2022/05/20 00:32:54;;;;;;;39.30;26.52;;;;;;;19.62;64.63;101409.44;5006016;28;119623;-79
2022/05/20 00:35:21;;;;;;;47.72;28.75;;;;;;;19.59;64.58;101410.44;5009592;28;119696;-80
2022/05/20 00:37:47;;;;;;;47.80;28.10;;;;;;;19.54;64.67;101413.19;5007913;28;121258;-79
2022/05/20 00:40:18;;;;;;;48.10;29.48;;;;;;;19.48;64.20;101415.16;5009224;28;119909;-79
2022/05/20 00:42:44;;;;;;;45.80;28.92;;;;;;;19.43;64.40;101424.22;4969974;28;121977;-79
2022/05/20 00:45:11;;;;;;;48.97;28.98;;;;;;;19.41;64.50;101427.50;4990959;28;119827;-79
2022/05/20 00:47:36;;;;;;;50.97;30.30;;;;;;;19.36;64.47;101425.41;5010514;28;119852;-79
2022/05/20 00:50:08;;;;;;;52.72;32.92;;;;;;;19.36;64.22;101430.22;4990783;28;119515;-79
2022/05/20 00:52:38;;;;;;;48.88;30.77;;;;;;;19.31;64.26;101432.47;4996882;28;119836;-79
2022/05/20 00:55:09;;;;;;;51.92;29.85;;;;;;;19.28;64.44;101441.03;5009909;28;120531;-81
2022/05/20 00:57:38;;;;;;;50.67;28.52;;;;;;;19.22;64.07;101437.44;4991234;28;120060;-79
2022/05/20 01:00:11;;;;;;;48.50;28.17;;;;;;;19.19;64.05;101438.44;4975675;28;119761;-79
2022/05/20 01:02:38;;;;;;;45.77;27.13;;;;;;;19.13;64.04;101451.50;5004902;27;119981;-80
2022/05/20 01:05:13;;;;;;;45.58;26.60;;;;;;;19.10;63.73;101441.38;5019169;27;119975;-79
2022/05/20 01:07:40;;;;;;;44.20;28.02;;;;;;;19.03;63.73;101437.00;5020608;27;119921;-79
2022/05/20 01:10:07;;;;;;;42.67;26.30;;;;;;;19.01;63.65;101437.50;4990014;28;119873;-79
2022/05/20 01:12:33;;;;;;;39.47;24.60;;;;;;;18.94;63.75;101426.84;5003702;28;119670;-79
2022/05/20 01:14:58;;;;;;;35.97;23.92;;;;;;;18.91;63.81;101429.81;4989965;28;122829;-79
2022/05/20 01:17:24;;;;;;;41.03;23.85;;;;;;;18.91;64.13;101438.91;5006662;27;120138;-79
2022/05/20 01:19:56;;;;;;;34.35;23.05;;;;;;;18.92;63.99;101437.66;5007117;28;119372;-81
2022/05/20 01:22:54;;;;;;;33.80;22.55;;;;;;;18.89;64.07;101443.44;4991452;28;120597;-79
2022/05/20 01:25:22;;;;;;;32.75;21.70;;;;;;;18.84;64.15;101444.91;4963396;28;123045;-79
2022/05/20 01:27:48;;;;;;;31.00;21.55;;;;;;;18.82;63.98;101438.31;4998160;28;119612;-79
2022/05/20 01:30:17;;;;;;;24.85;18.10;;;;;;;18.83;64.36;101462.06;5008813;28;120299;-79
2022/05/20 01:32:43;;;;;;;21.42;14.25;;;;;;;18.79;63.70;101456.72;5007124;28;119050;-79
2022/05/20 01:35:23;;;;;;;14.30;11.85;;;;;;;18.73;63.30;101458.69;4991438;28;122056;-79
2022/05/20 01:37:49;;;;;;;16.00;11.35;;;;;;;18.68;63.26;101462.16;4999333;28;121662;-79
2022/05/20 01:40:15;;;;;;;15.02;10.80;;;;;;;18.63;63.25;101455.28;4995109;28;119775;-78
2022/05/20 01:42:50;;;;;;;16.08;10.55;;;;;;;18.59;63.14;101460.25;5007988;28;120058;-80
2022/05/20 01:45:28;;;;;;;15.43;10.38;;;;;;;18.56;63.55;101461.25;4991001;28;120060;-79
2022/05/20 01:48:02;;;;;;;14.07;9.57;;;;;;;18.55;63.24;101461.72;4991028;28;119795;-78
2022/05/20 01:50:41;;;;;;;;;;;;;;;18.53;63.47;101464.22;4995186;28;119592;-80
2022/05/20 01:53:09;;;;;;;12.68;8.65;;;;;;;18.55;63.11;101459.72;5006694;28;119894;-78
2022/05/20 01:55:46;;;;;;;12.52;8.18;;;;;;;18.54;62.95;101463.75;4991743;28;119946;-78
2022/05/20 01:58:25;;;;;;;11.15;8.50;;;;;;;18.51;62.69;101461.94;4992407;28;120283;-79
2022/05/20 02:00:55;;;;;;;11.80;8.25;;;;;;;18.48;63.01;101454.59;5000064;28;119702;-78
2022/05/20 02:03:38;;;;;;;14.18;8.88;;;;;;;18.56;63.33;101457.69;4990173;28;119920;-78
2022/05/20 02:06:29;;;;;;;13.82;8.10;;;;;;;18.52;63.35;101448.81;4991152;28;121801;-78
2022/05/20 02:09:02;;;;;;;13.23;8.23;;;;;;;18.57;63.09;101462.00;5009248;28;119445;-78
2022/05/20 02:11:30;;;;;;;10.43;7.07;;;;;;;18.57;62.83;101462.78;4986997;28;119648;-78
2022/05/20 02:14:02;;;;;;;12.15;8.25;;;;;;;18.52;62.97;101460.69;4990620;28;119963;-78
2022/05/20 02:16:36;;;;;;;12.48;7.82;;;;;;;18.60;62.75;101474.91;5009818;28;119500;-78
2022/05/20 02:19:31;;;;;;;8.60;7.43;;;;;;;18.58;62.42;101477.44;5006583;28;120067;-78
2022/05/20 02:22:01;;;;;;;10.82;8.70;;;;;;;18.57;62.30;101481.44;4990624;28;119749;-78
2022/05/20 02:24:32;;;;;;;9.38;8.25;;;;;;;18.56;62.34;101471.59;5008580;28;120005;-78
2022/05/20 02:27:06;;;;;;;11.32;9.02;;;;;;;18.55;62.52;101478.41;5006171;28;123119;-78
2022/05/20 02:29:50;;;;;;;13.27;8.20;;;;;;;18.57;62.69;101478.69;4989732;28;120154;-78
2022/05/20 02:32:29;;;;;;;;;;;;;;;18.58;62.93;101485.75;4980397;28;119627;-78
2022/05/20 02:34:55;;;;;;;13.55;8.55;;;;;;;18.57;62.83;101481.44;4980557;28;121872;-78
2022/05/20 02:37:39;;;;;;;12.48;8.13;;;;;;;18.56;62.93;101480.69;4993731;28;121136;-79
2022/05/20 02:40:08;;;;;;;9.13;7.70;;;;;;;18.58;62.51;101480.19;5007265;28;119967;-79
2022/05/20 02:42:33;;;;;;;9.93;8.38;;;;;;;18.56;62.60;101477.91;4990416;28;119826;-78
2022/05/20 02:45:00;;;;;;;10.15;8.32;;;;;;;18.57;62.48;101476.66;5008779;28;120015;-78
2022/05/20 02:47:31;;;;;;;10.98;8.65;;;;;;;18.60;62.78;101480.47;4989688;28;120302;-78
2022/05/20 02:50:01;;;;;;;13.07;9.13;;;;;;;18.59;62.78;101490.06;5007496;27;119811;-78
2022/05/20 02:52:27;;;;;;;12.15;9.05;;;;;;;18.57;62.60;101484.22;4993407;27;120221;-78
2022/05/20 02:54:53;;;;;;;14.23;9.63;;;;;;;18.54;62.71;101482.44;5019720;27;120406;-78
2022/05/20 02:57:21;;;;;;;14.80;9.48;;;;;;;18.54;62.72;101476.88;5012384;28;119720;-78
2022/05/20 03:05:19;;;;;;;17.30;11.02;;;;;;;18.56;63.25;101482.72;4992266;28;119550;-78
2022/05/20 03:07:45;;;;;;;17.55;11.73;;;;;;;18.56;63.33;101477.91;5009927;28;120411;-78
2022/05/20 03:10:11;;;;;;;;;;;;;;;18.56;63.40;101477.16;5009710;28;119919;-80
2022/05/20 03:12:37;;;;;;;17.23;11.45;;;;;;;18.56;63.47;101482.72;5012093;27;119560;-79
2022/05/20 03:15:04;;;;;;;16.83;11.48;;;;;;;18.58;63.60;101480.19;4976248;28;122866;-78
2022/05/20 03:17:31;;;;;;;17.98;12.80;;;;;;;18.59;63.57;101488.06;5012076;28;119405;-78
2022/05/20 03:19:56;;;;;;;15.35;10.88;;;;;;;18.59;63.89;101482.50;5014613;27;119574;-78
2022/05/20 03:22:22;;;;;;;14.50;10.65;;;;;;;18.60;64.18;101480.47;5010767;27;119615;-78
2022/05/20 03:24:48;;;;;;;16.13;10.77;;;;;;;18.60;63.82;101483.25;4979761;28;120836;-78
2022/05/20 03:27:16;;;;;;;15.75;10.70;;;;;;;18.62;63.59;101486.31;4992859;28;121851;-79
2022/05/20 03:29:46;;;;;;;17.25;10.63;;;;;;;18.56;63.46;101482.72;4993312;28;120358;-78
2022/05/20 03:32:12;;;;;;;17.73;10.07;;;;;;;18.58;63.68;101480.97;4975445;28;120462;-79
2022/05/20 03:34:39;;;;;;;15.65;11.10;;;;;;;18.77;63.18;101487.03;5009345;28;120321;-78
2022/05/20 03:37:05;;;;;;;16.08;10.70;;;;;;;18.91;62.65;101496.53;4992269;28;119439;-78
2022/05/20 03:39:31;;;;;;;15.50;10.70;;;;;;;19.03;62.40;101489.84;4991366;28;119683;-78
2022/05/20 03:41:57;;;;;;;13.05;9.45;;;;;;;19.13;61.66;101484.88;4977189;28;120511;-78
2022/05/20 03:44:23;;;;;;;14.43;8.68;;;;;;;19.23;61.43;101494.59;5009717;28;119618;-78
2022/05/20 03:46:51;;;;;;;13.02;8.95;;;;;;;19.30;61.42;101494.16;5009597;27;121317;-78
2022/05/20 03:49:18;;;;;;;13.38;8.43;;;;;;;19.33;61.25;101501.50;4992103;28;119845;-78
2022/05/20 03:51:46;;;;;;;12.40;8.52;;;;;;;19.36;60.46;101492.19;4991024;28;119850;-79
2022/05/20 03:54:16;;;;;;;12.70;9.15;;;;;;;19.34;60.13;101491.91;4991374;28;123126;-78
2022/05/20 03:56:42;;;;;;;13.60;8.77;;;;;;;19.36;60.24;101494.19;5009026;28;120035;-79
2022/05/20 03:59:17;;;;;;;15.33;8.87;;;;;;;19.35;60.91;101496.22;5006973;28;120575;-78
2022/05/20 04:01:58;;;;;;;14.38;8.85;;;;;;;19.38;60.67;101500.78;5007589;28;121261;-78
2022/05/20 04:04:24;;;;;;;13.50;8.85;;;;;;;19.37;60.71;101499.25;5011695;28;120277;-78
2022/05/20 04:06:50;;;;;;;13.83;9.10;;;;;;;19.37;60.45;101499.25;5008377;28;120446;-78
2022/05/20 04:09:15;;;;;;;13.40;9.50;;;;;;;19.38;61.05;101505.59;4975279;28;120039;-78
2022/05/20 04:11:41;;;;;;;14.33;10.10;;;;;;;19.37;60.93;101501.28;5009977;28;119653;-79
2022/05/20 04:14:08;;;;;;;14.23;10.07;;;;;;;19.34;60.87;101494.69;4987689;28;121933;-80
2022/05/20 04:16:34;;;;;;;13.90;9.80;;;;;;;19.36;60.81;101497.75;4989567;28;119635;-80
2022/05/20 04:18:59;;;;;;;13.57;10.07;;;;;;;19.35;60.06;101495.44;5008634;28;119387;-78
2022/05/20 04:21:25;;;;;;;13.87;10.20;;;;;;;19.32;60.49;101500.75;5008529;28;121103;-78
2022/05/20 04:23:51;;;;;;;12.53;9.10;;;;;;;19.27;60.44;101490.34;5013257;27;119660;-78
2022/05/20 04:26:17;;;;;;;10.90;8.60;;;;;;;19.29;60.45;101504.50;4973551;28;122070;-78
2022/05/20 04:28:43;;;;;;;11.00;8.30;;;;;;;19.28;60.39;101493.88;5009472;28;120096;-78
2022/05/20 04:31:10;;;;;;;11.32;8.60;;;;;;;19.28;60.09;101502.22;5008860;28;120255;-78
2022/05/20 04:33:36;;;;;;;12.23;8.40;;;;;;;19.24;59.96;101501.69;5006501;28;121184;-80
2022/05/20 04:36:05;;;;;;;13.43;8.30;;;;;;;19.27;60.23;101506.25;5007943;28;120271;-78
2022/05/20 04:38:31;;;;;;;10.85;8.05;;;;;;;19.23;60.18;101519.63;5007707;28;119734;-78
2022/05/20 04:49:11;;;;;;;10.40;6.80;;;;;;;19.11;60.06;101520.75;5013911;27;119896;-78
2022/05/20 04:51:40;;;;;;;8.90;5.97;;;;;;;19.11;59.52;101526.31;5017745;27;119471;-78
2022/05/20 04:56:52;;;;;;;6.70;4.90;;;;;;;19.06;59.20;101536.13;5008207;28;119850;-78
2022/05/20 04:59:20;;;;;;;8.40;4.32;;;;;;;19.02;58.12;101544.69;4987212;28;120656;-78
2022/05/20 05:01:48;;;;;;;5.90;4.55;;;;;;;19.02;59.22;101541.91;4954786;28;120444;-78
2022/05/20 05:04:18;;;;;;;7.43;4.60;;;;;;;19.05;58.83;101550.53;5013710;27;120299;-78
2022/05/20 05:06:45;;;;;;;7.25;4.70;;;;;;;19.04;58.94;101560.13;5020525;27;119521;-78
2022/05/20 05:09:11;;;;;;;7.13;4.70;;;;;;;19.06;59.29;101565.94;5010395;28;120455;-78
2022/05/20 05:11:39;;;;;;;6.88;4.20;;;;;;;19.11;58.91;101562.47;5007801;28;120504;-78
2022/05/20 05:14:10;;;;;;;7.10;4.60;;;;;;;19.13;58.67;101563.50;4990288;28;123325;-78
2022/05/20 05:16:38;;;;;;;5.20;4.32;;;;;;;19.17;58.06;101574.44;4991185;28;119592;-79
2022/05/20 05:19:03;;;;;;;7.10;4.40;;;;;;;19.19;57.67;101583.81;5005381;28;119917;-78
2022/05/20 05:21:29;;;;;;;5.37;4.13;;;;;;;19.13;57.68;101573.84;5007855;28;120134;-78
2022/05/20 05:23:55;;;;;;;5.15;3.70;;;;;;;19.19;57.91;101591.41;4991011;28;119752;-78
2022/05/20 05:26:23;;;;;;;6.05;4.10;;;;;;;19.20;58.00;101596.47;4973426;28;120647;-78
2022/05/20 05:28:48;;;;;;;5.57;3.80;;;;;;;19.18;56.99;101601.00;5007915;28;120582;-78
2022/05/20 05:31:14;;;;;;;5.07;3.30;;;;;;;19.19;56.82;101610.88;5011326;28;119564;-79
2022/05/20 05:33:39;;;;;;;4.07;2.97;;;;;;;19.18;56.38;101614.91;4989746;28;122912;-78
2022/05/20 05:36:05;;;;;;;5.90;3.10;;;;;;;19.19;56.64;101627.56;5003737;28;119549;-78
2022/05/20 05:38:31;;;;;;;4.70;2.80;;;;;;;19.17;55.93;101635.63;4983436;28;120774;-78
2022/05/20 05:40:58;;;;;;;3.92;2.47;;;;;;;19.12;54.74;101639.84;4957287;28;123409;-78
2022/05/20 05:43:24;;;;;;;2.93;2.63;;;;;;;19.07;55.45;101632.19;5008056;28;120190;-78
2022/05/20 05:45:50;;;;;;;4.53;3.10;;;;;;;19.00;55.59;101633.38;4989329;28;119788;-78
2022/05/20 05:48:17;;;;;;;4.60;2.90;;;;;;;19.06;57.17;101635.47;4978698;28;120036;-78
2022/05/20 05:50:44;;;;;;;6.93;3.28;;;;;;;19.03;56.24;101637.22;4978125;28;120011;-78
2022/05/20 05:53:15;;;;;;;3.55;2.80;;;;;;;19.01;56.36;101640.47;5011019;27;119832;-79
2022/05/20 05:55:44;;;;;;;5.65;3.33;;;;;;;19.09;56.94;101640.06;4990755;28;120045;-81
2022/05/20 05:58:10;;;;;;;4.45;3.22;;;;;;;19.13;56.04;101643.38;5006620;28;119875;-78
2022/05/20 06:00:36;;;;;;;3.20;2.88;;;;;;;19.16;56.30;101651.53;4985459;28;123054;-78
2022/05/20 06:03:03;;;;;;;5.88;3.20;;;;;;;19.18;55.60;101648.28;4983594;28;119955;-78
2022/05/20 06:05:30;;;;;;;5.53;3.22;;;;;;;19.19;56.41;101649.81;5010405;27;120184;-78
2022/05/20 06:07:56;;;;;;;4.25;2.80;;;;;;;19.24;56.24;101649.88;5010948;28;120117;-79
2022/05/20 06:10:22;;;;;;;5.53;2.90;;;;;;;19.28;56.20;101641.31;4993065;28;119625;-79
2022/05/20 06:12:49;;;;;;;5.67;2.87;;;;;;;19.33;56.56;101643.38;4993685;28;120741;-78
2022/05/20 06:15:18;;;;;;;5.40;2.97;;;;;;;19.32;54.19;101636.28;4972004;28;119697;-78
2022/05/20 06:17:44;;;;;;;6.15;3.20;;;;;;;19.27;54.66;101625.88;5010532;28;119779;-79
2022/05/20 06:20:11;;;;;;;7.57;3.78;;;;;;;19.29;54.97;101626.16;5009896;27;119929;-78
2022/05/20 06:22:37;;;;;;;5.80;3.00;;;;;;;19.28;55.26;101624.63;4976518;28;119856;-78
2022/05/20 06:25:04;;;;;;;4.07;2.50;;;;;;;19.31;55.05;101637.53;5010718;28;119392;-78
2022/05/20 06:27:32;;;;;;;3.30;2.80;;;;;;;19.33;55.63;101637.81;5010976;28;119484;-78
2022/05/20 06:29:58;;;;;;;4.40;2.85;;;;;;;19.36;55.54;101641.63;5010983;28;119795;-78
2022/05/20 06:32:23;;;;;;;4.30;2.95;;;;;;;19.38;55.90;101625.97;4993575;28;121832;-78
2022/05/20 06:40:21;;;;;;;4.45;3.20;;;;;;;19.40;54.94;101637.41;5010665;28;121350;-78
2022/05/20 06:42:47;;;;;;;4.80;3.58;;;;;;;19.47;55.68;101652.91;4992819;28;120142;-78
2022/05/20 06:45:15;;;;;;;5.10;3.30;;;;;;;19.46;55.56;101652.16;4985309;28;122670;-78
2022/05/20 06:47:41;;;;;;;7.25;3.50;;;;;;;19.49;55.06;101665.06;5007548;28;120141;-78
2022/05/20 06:50:08;;;;;;;4.82;3.50;;;;;;;19.50;54.53;101666.59;5013150;27;119703;-78
2022/05/20 06:52:34;;;;;;;5.50;3.60;;;;;;;19.51;55.23;101670.16;4992649;27;119565;-78
2022/05/20 06:55:00;;;;;;;5.13;3.67;;;;;;;19.49;56.45;101656.72;4973434;27;122757;-78
2022/05/20 06:57:28;;;;;;;6.77;4.30;;;;;;;19.51;55.29;101662.56;5002110;28;119725;-78
2022/05/20 06:59:54;;;;;;;6.85;4.70;;;;;;;19.52;55.50;101663.31;5002837;27;123601;-78
2022/05/20 07:02:20;;;;;;;5.60;4.55;;;;;;;19.52;55.78;101671.69;5009655;27;119532;-78
2022/05/20 07:04:49;;;;;;;6.53;4.70;;;;;;;19.49;56.17;101661.53;5021331;27;119924;-78
2022/05/20 07:07:14;;;;;;;6.85;4.60;;;;;;;19.48;54.66;101665.56;5000557;27;121276;-78
2022/05/20 07:09:40;;;;;;;7.25;4.60;;;;;;;19.44;54.98;101665.03;5013796;27;119759;-78
2022/05/20 07:12:06;;;;;;;5.13;4.13;;;;;;;19.33;54.91;101657.28;5010487;27;119959;-78
2022/05/20 07:14:31;;;;;;;5.40;4.30;;;;;;;19.41;55.45;101661.19;5012842;27;120064;-79
2022/05/20 07:17:00;;;;;;;6.13;4.82;;;;;;;19.41;55.51;101660.44;4988591;27;119837;-78
2022/05/20 07:19:25;;;;;;;9.73;6.30;;;;;;;19.38;54.72;101651.03;5002782;27;119574;-78
2022/05/20 07:21:51;;;;;;;6.87;5.47;;;;;;;19.40;54.98;101653.31;5006986;27;119800;-78
2022/05/20 07:24:17;;;;;;;6.78;5.47;;;;;;;19.38;54.92;101656.59;5017393;27;119534;-78
2022/05/20 07:26:42;;;;;;;6.35;5.20;;;;;;;19.38;54.88;101661.38;5016630;27;120156;-80
2022/05/20 07:29:11;;;;;;;5.90;5.10;;;;;;;19.33;54.40;101652.50;5000514;27;120028;-78
2022/05/20 07:31:37;;;;;;;5.53;4.97;;;;;;;19.30;55.43;101656.25;4980864;28;122194;-79
2022/05/20 07:34:02;;;;;;;6.38;5.28;;;;;;;19.32;55.03;101664.09;5006384;27;119644;-78
2022/05/20 07:36:28;;;;;;;7.07;5.40;;;;;;;19.32;55.31;101669.66;5008239;28;119708;-79
2022/05/20 07:38:54;;;;;;;6.63;5.23;;;;;;;19.33;55.47;101671.19;4996852;28;119698;-78
2022/05/20 07:41:22;;;;;;;6.40;5.80;;;;;;;19.30;55.00;101656.25;4992996;27;121620;-78
2022/05/20 07:43:48;;;;;;;6.95;5.60;;;;;;;19.34;56.86;101658.81;4966100;27;121978;-78
2022/05/20 07:46:14;;;;;;;7.95;6.00;;;;;;;19.35;56.34;101657.56;4981675;28;122064;-78
2022/05/20 07:48:39;;;;;;;6.13;5.50;;;;;;;19.39;56.51;101652.56;5015041;27;119587;-78
2022/05/20 07:51:09;;;;;;;6.63;5.78;;;;;;;19.43;56.30;101641.22;4999061;28;120051;-78
2022/05/20 07:53:39;;;;;;;7.53;6.20;;;;;;;19.48;56.50;101649.63;5012295;27;120195;-78
2022/05/20 07:56:31;;;;;;;7.82;6.10;;;;;;;19.46;55.40;101637.47;5008728;28;120207;-78
2022/05/20 07:59:02;;;;;;;6.57;5.80;;;;;;;19.47;56.08;101653.69;4988161;28;120424;-78
2022/05/20 08:01:30;;;;;;;8.97;5.80;;;;;;;19.50;56.15;101649.91;4990903;28;120762;-78
2022/05/20 08:07:01;;;;;;;6.63;5.40;;;;;;;19.53;55.56;101635.03;5007656;27;121523;-78
2022/05/20 08:09:30;;;;;;;8.48;5.75;;;;;;;19.64;56.07;101634.41;4997147;27;119839;-78
2022/05/20 08:11:57;;;;;;;7.20;5.65;;;;;;;19.71;56.27;101630.41;5008980;27;119790;-80
2022/05/20 08:14:24;;;;;;;7.80;5.15;;;;;;;19.77;54.85;101632.00;4989125;28;121606;-78
2022/05/20 08:16:49;;;;;;;7.40;5.07;;;;;;;19.80;54.81;101636.56;4990523;28;120597;-78
2022/05/20 08:19:15;;;;;;;6.63;5.00;;;;;;;19.88;56.08;101645.28;5016367;27;121251;-78
2022/05/20 08:21:41;;;;;;;6.72;4.90;;;;;;;19.90;54.83;101631.63;4987410;28;119540;-78
2022/05/20 08:24:07;;;;;;;7.10;4.93;;;;;;;20.00;55.16;101641.31;5008464;27;119787;-79
2022/05/20 08:26:33;;;;;;;7.10;5.10;;;;;;;20.08;55.28;101652.78;4988813;28;120493;-78
2022/05/20 08:28:59;;;;;;;6.55;4.80;;;;;;;20.14;54.19;101645.25;5010387;27;119924;-78
2022/05/20 08:31:25;;;;;;;6.38;4.80;;;;;;;20.18;53.14;101652.13;4988496;28;120858;-78
2022/05/20 08:33:51;;;;;;;6.90;5.40;;;;;;;20.19;54.26;101645.28;5014223;27;121332;-78
2022/05/20 08:36:18;;;;;;;6.20;5.20;;;;;;;20.22;53.72;101652.66;4970943;27;1220941;-78
2022/05/20 08:38:47;;;;;;;7.57;5.50;;;;;;;20.29;54.07;101656.22;5004133;27;119731;-78
2022/05/20 08:41:23;;;;;;;7.68;5.40;;;;;;;20.33;54.60;101637.25;4997471;28;121506;-78
2022/05/20 08:43:50;;;;;;;8.07;5.20;;;;;;;20.45;54.35;101633.34;5003459;27;119508;-78
2022/05/20 08:46:18;;;;;;;6.30;4.00;;;;;;;20.49;52.12;101633.88;5010710;27;120907;-79
2022/05/20 08:48:45;;;;;;;7.13;4.30;;;;;;;20.58;52.54;101633.66;5020786;27;119653;-78
2022/05/20 08:51:11;;;;;;;5.47;4.22;;;;;;;20.59;52.26;101623.31;4975738;28;122227;-78
2022/05/20 08:53:44;;;;;;;6.03;4.30;;;;;;;20.64;52.22;101634.47;4985391;28;121790;-78
2022/05/20 08:56:17;;;;;;;5.57;4.18;;;;;;;20.70;52.40;101629.69;5014408;27;119699;-80
2022/05/20 08:58:52;;;;;;;6.20;4.40;;;;;;;20.80;51.81;101619.84;4987795;28;119689;-78
2022/05/20 09:01:37;;;;;;;6.03;4.40;;;;;;;21.01;52.51;101611.34;4982630;28;120587;-79
2022/05/20 09:04:07;;;;;;;5.78;4.82;;;;;;;21.19;52.43;101618.50;4985155;28;119614;-78
2022/05/20 09:06:56;;;;;;;5.65;4.40;;;;;;;21.26;50.55;101610.44;4999973;27;120437;-78
2022/05/20 09:09:41;;;;;;;7.53;4.93;;;;;;;21.28;50.92;101621.84;5004612;27;120051;-78
2022/05/20 09:12:10;;;;;;;9.07;5.13;;;;;;;21.27;51.22;101611.19;5004017;27;120185;-80
2022/05/20 09:17:24;;;;;;;8.15;5.10;;;;;;;21.25;51.26;101605.34;5006397;27;119651;-78
2022/05/20 09:19:55;;;;;;;7.28;5.10;;;;;;;21.24;49.92;101587.84;5017065;27;119786;-78
2022/05/20 09:22:31;;;;;;;7.47;5.00;;;;;;;21.20;50.71;101592.91;4990021;28;121251;-79
2022/05/20 09:24:57;;;;;;;8.38;4.47;;;;;;;21.19;50.83;101605.31;4989286;28;119760;-78
2022/05/20 09:27:32;;;;;;;5.60;4.20;;;;;;;21.18;50.20;101592.63;5008275;28;120242;-78
2022/05/20 09:30:01;;;;;;;7.43;4.90;;;;;;;21.22;51.00;101597.97;5006191;28;121678;-78
2022/05/20 09:32:39;;;;;;;6.45;3.80;;;;;;;21.28;50.62;101609.94;5009654;28;119762;-78
2022/05/20 09:35:22;;;;;;;5.80;3.53;;;;;;;21.35;50.68;101609.47;4988015;28;120291;-78
2022/05/20 09:37:51;;;;;;;5.20;3.30;;;;;;;21.39;50.33;101596.03;5005739;27;120235;-79
2022/05/20 09:40:23;;;;;;;6.20;3.40;;;;;;;21.35;49.49;101601.09;5011728;27;119686;-78
2022/05/20 09:43:09;;;;;;;7.53;3.80;;;;;;;21.30;48.09;101599.06;5017138;27;119856;-80
2022/05/20 09:45:48;;;;;;;6.20;3.80;;;;;;;21.26;50.28;101598.50;4991748;28;119733;-78
2022/05/20 09:48:49;;;;;;;5.32;3.50;;;;;;;21.26;50.73;101607.66;5009711;27;119886;-79
2022/05/20 09:51:24;;;;;;;5.50;3.53;;;;;;;21.21;50.60;101602.78;4989300;28;120221;-79
2022/05/20 09:54:16;;;;;;;6.03;3.88;;;;;;;21.23;50.52;101600.25;5021665;27;119895;-80
2022/05/20 09:56:57;;;;;;;5.95;3.38;;;;;;;21.27;50.16;101589.63;5005996;27;119455;-78
2022/05/20 09:59:32;;;;;;;5.43;3.50;;;;;;;21.37;49.95;101587.41;5003789;28;120015;-78
2022/05/20 10:02:00;;;;;;;6.80;3.72;;;;;;;21.41;48.60;101596.28;4993202;27;119706;-78
2022/05/20 10:05:04;;;;;;;7.68;3.70;;;;;;;21.40;48.56;101581.56;5008392;27;119980;-79
2022/05/20 10:07:45;;;;;;;6.65;3.70;;;;;;;21.40;48.37;101578.78;4976399;27;120100;-78
2022/05/20 10:10:38;;;;;;;6.50;3.40;;;;;;;21.47;50.05;101577.50;5008386;27;120869;-78
2022/05/20 10:13:07;;;;;;;5.82;3.58;;;;;;;21.53;49.64;101580.31;4973296;28;120479;-78
2022/05/20 10:15:43;;;;;;;5.23;3.50;;;;;;;21.59;49.67;101576.28;4992383;28;120111;-78
2022/05/20 10:18:39;;;;;;;4.85;3.22;;;;;;;21.74;49.68;101581.59;4997497;27;119733;-79
2022/05/20 10:21:20;;;;;;;5.47;3.17;;;;;;;21.81;48.86;101586.69;5009593;28;119719;-80
2022/05/20 10:24:23;;;;;;;5.72;3.28;;;;;;;21.82;48.66;101596.59;5017553;27;119612;-78
2022/05/20 10:27:12;;;;;;;7.78;3.28;;;;;;;21.80;48.83;101601.16;5004316;27;121444;-78
2022/05/20 10:32:54;;;;;;;5.90;3.33;;;;;;;21.75;49.09;101581.09;5004454;27;119901;-78
2022/05/20 10:35:24;;;;;;;6.68;3.50;;;;;;;21.77;46.83;101580.59;5016228;27;120145;-79
2022/05/20 10:38:18;;;;;;;4.78;3.15;;;;;;;21.82;49.72;101579.84;5000516;27;119672;-78
2022/05/20 10:40:50;;;;;;;5.77;3.00;;;;;;;21.86;50.09;101571.97;4998653;27;119878;-79
2022/05/20 10:49:38;;;;;;;5.70;3.00;;;;;;;21.96;47.74;101569.66;5017050;27;119963;-78
2022/05/20 10:52:38;;;;;;;5.22;3.17;;;;;;;21.95;47.51;101560.53;4998567;27;119663;-78
2022/05/20 10:55:25;;;;;;;6.97;3.13;;;;;;;21.92;47.61;101555.97;5007293;27;119915;-79
2022/05/20 10:58:17;;;;;;;6.40;3.20;;;;;;;21.89;46.50;101559.78;5002307;27;121556;-79
2022/05/20 11:00:52;;;;;;;7.07;3.67;;;;;;;21.83;45.48;101561.81;5018681;27;120119;-80
2022/05/20 11:03:39;;;;;;;5.38;3.00;;;;;;;21.78;47.72;101559.78;4990774;28;120504;-78
2022/05/20 11:06:18;;;;;;;5.50;3.00;;;;;;;21.76;48.41;101546.31;5007470;27;119975;-81
2022/05/20 11:08:44;;;;;;;6.93;3.03;;;;;;;21.80;47.47;101548.09;5014235;27;120187;-78
2022/05/20 11:11:22;;;;;;;5.90;3.25;;;;;;;21.80;45.67;101546.06;4990293;27;120270;-79
2022/05/20 11:13:51;;;;;;;5.30;2.80;;;;;;;21.79;47.57;101544.56;4988094;27;120154;-78
2022/05/20 11:16:42;;;;;;;5.93;3.30;;;;;;;21.80;46.48;101531.34;5002691;27;119721;-79
2022/05/20 11:19:26;;;;;;;5.43;3.20;;;;;;;21.85;49.97;101536.16;4991778;27;119655;-78
2022/05/20 11:22:08;;;;;;;5.90;2.90;;;;;;;21.93;47.53;101537.94;4989732;27;119855;-79
2022/05/20 11:24:52;;;;;;;6.45;3.15;;;;;;;21.97;46.39;101534.88;5001929;27;120018;-81
2022/05/20 11:27:29;;;;;;;5.27;3.10;;;;;;;21.96;46.52;101534.13;4970859;28;121776;-79
2022/05/20 11:30:02;;;;;;;5.03;2.80;;;;;;;21.92;46.49;101528.03;4973226;27;119947;-79
2022/05/20 11:32:45;;;;;;;7.15;2.83;;;;;;;21.98;47.99;101528.00;4977498;28;120101;-81
2022/05/20 11:35:26;;;;;;;6.15;3.20;;;;;;;22.02;46.72;101509.75;4965021;28;119729;-79
2022/05/20 11:38:03;;;;;;;6.10;3.10;;;;;;;22.00;47.44;101509.50;4990698;27;120873;-79
2022/05/20 11:40:29;;;;;;;6.38;2.90;;;;;;;22.10;46.18;101517.63;4996328;27;120763;-78
2022/05/20 11:43:32;;;;;;;5.63;3.10;;;;;;;22.15;48.46;101514.81;4982780;28;120235;-79
2022/05/20 11:46:35;;;;;;;6.80;3.23;;;;;;;22.17;47.76;101505.91;5004476;27;120244;-79
2022/05/20 11:49:13;;;;;;;7.22;2.90;;;;;;;22.22;48.00;101496.75;4999259;27;120237;-78
2022/05/20 11:52:09;;;;;;;5.55;3.20;;;;;;;22.25;48.34;101490.16;5008136;27;119920;-79
2022/05/20 11:54:43;;;;;;;5.68;3.00;;;;;;;22.33;48.30;101491.91;4995665;28;120462;-79
2022/05/20 11:57:14;;;;;;;6.47;2.97;;;;;;;22.41;47.87;101480.94;5001573;28;119882;-80
2022/05/20 11:59:43;;;;;;;7.57;3.30;;;;;;;22.46;47.82;101482.19;4979821;27;120115;-79
2022/05/20 12:02:14;;;;;;;5.17;2.73;;;;;;;22.47;47.14;101472.53;5002645;27;120179;-79
2022/05/20 12:04:41;;;;;;;8.13;3.60;;;;;;;22.46;46.88;101479.41;5006237;27;120091;-79
2022/05/20 12:07:17;;;;;;;7.00;2.97;;;;;;;22.47;47.09;101478.88;5008866;27;119725;-79
2022/05/20 12:09:49;;;;;;;6.67;2.90;;;;;;;22.49;46.67;101475.59;4988547;27;120470;-78
2022/05/20 12:12:31;;;;;;;6.97;3.05;;;;;;;22.45;46.94;101463.91;5008550;27;120628;-78